sensor_id;sensor_type;location;lat;lon;timestamp;pressure;altitude;pressure_sealevel;temperature;humidity
13934;BME280;7039;52.168;9.866;2023-06-24T00:02:23;101432.28;;;16.96;83.18
13934;BME280;7039;52.168;9.866;2023-06-24T00:04:51;101429.47;;;16.99;83.47
13934;BME280;7039;52.168;9.866;2023-06-24T00:07:18;101434.19;;;16.94;83.63
13934;BME280;7039;52.168;9.866;2023-06-24T00:09:46;101431.44;;;16.96;84.19
13934;BME280;7039;52.168;9.866;2023-06-24T00:12:12;101428.44;;;16.87;83.85
13934;BME280;7039;52.168;9.866;2023-06-24T00:14:45;101421.22;;;16.75;85.17
13934;BME280;7039;52.168;9.866;2023-06-24T00:17:11;101417.09;;;16.71;83.96
13934;BME280;7039;52.168;9.866;2023-06-24T00:19:38;101418.97;;;16.69;84.04
13934;BME280;7039;52.168;9.866;2023-06-24T00:22:06;101419.91;;;16.68;84.04
13934;BME280;7039;52.168;9.866;2023-06-24T00:24:32;101423.94;;;16.59;84.83
13934;BME280;7039;52.168;9.866;2023-06-24T00:26:59;101424.78;;;16.45;83.60
13934;BME280;7039;52.168;9.866;2023-06-24T00:29:25;101421.66;;;16.39;84.10
13934;BME280;7039;52.168;9.866;2023-06-24T00:31:52;101418.81;;;16.27;83.92
13934;BME280;7039;52.168;9.866;2023-06-24T00:34:18;101436.97;;;16.32;85.60
13934;BME280;7039;52.168;9.866;2023-06-24T00:36:45;101434.00;;;16.08;85.58
13934;BME280;7039;52.168;9.866;2023-06-24T00:39:14;101426.06;;;16.24;85.97
13934;BME280;7039;52.168;9.866;2023-06-24T00:41:40;101436.41;;;16.27;86.34
13934;BME280;7039;52.168;9.866;2023-06-24T00:44:06;101438.53;;;16.20;85.49
13934;BME280;7039;52.168;9.866;2023-06-24T00:46:34;101438.53;;;16.20;85.76
13934;BME280;7039;52.168;9.866;2023-06-24T00:49:01;101440.09;;;16.08;85.98
13934;BME280;7039;52.168;9.866;2023-06-24T00:51:28;101443.06;;;16.02;86.84
13934;BME280;7039;52.168;9.866;2023-06-24T00:53:56;101442.41;;;15.99;87.63
13934;BME280;7039;52.168;9.866;2023-06-24T00:56:26;101443.00;;;16.04;87.69
13934;BME280;7039;52.168;9.866;2023-06-24T00:58:54;101439.88;;;15.97;87.65
13934;BME280;7039;52.168;9.866;2023-06-24T01:01:20;101443.34;;;15.98;87.11
13934;BME280;7039;52.168;9.866;2023-06-24T01:03:49;101437.19;;;15.83;87.22
13934;BME280;7039;52.168;9.866;2023-06-24T01:06:16;101437.75;;;15.88;87.80
13934;BME280;7039;52.168;9.866;2023-06-24T01:08:42;101438.41;;;15.92;87.97
13934;BME280;7039;52.168;9.866;2023-06-24T01:11:09;101430.72;;;15.89;87.12
13934;BME280;7039;52.168;9.866;2023-06-24T01:13:37;101441.22;;;15.89;87.34
13934;BME280;7039;52.168;9.866;2023-06-24T01:16:17;101437.25;;;15.81;87.83
13934;BME280;7039;52.168;9.866;2023-06-24T01:18:57;101440.16;;;15.77;87.47
13934;BME280;7039;52.168;9.866;2023-06-24T01:21:39;101447.09;;;15.78;88.18
13934;BME280;7039;52.168;9.866;2023-06-24T01:32:03;101454.78;;;15.33;88.44
13934;BME280;7039;52.168;9.866;2023-06-24T01:34:36;101452.16;;;15.33;88.76
13934;BME280;7039;52.168;9.866;2023-06-24T01:38:00;101454.63;;;15.52;87.68
13934;BME280;7039;52.168;9.866;2023-06-24T01:43:38;101449.38;;;15.36;87.63
13934;BME280;7039;52.168;9.866;2023-06-24T01:46:29;101448.91;;;15.28;87.98
13934;BME280;7039;52.168;9.866;2023-06-24T01:59:29;101451.69;;;15.09;88.57
13934;BME280;7039;52.168;9.866;2023-06-24T02:02:12;101453.94;;;15.33;88.28
13934;BME280;7039;52.168;9.866;2023-06-24T02:26:12;101453.19;;;15.31;87.83
13934;BME280;7039;52.168;9.866;2023-06-24T02:34:22;101435.81;;;14.61;88.73
13934;BME280;7039;52.168;9.866;2023-06-24T02:39:39;101448.66;;;14.49;88.91
13934;BME280;7039;52.168;9.866;2023-06-24T02:42:26;101440.66;;;14.52;89.34
13934;BME280;7039;52.168;9.866;2023-06-24T03:51:31;101474.69;;;14.53;89.11
13934;BME280;7039;52.168;9.866;2023-06-24T03:54:10;101482.16;;;14.63;89.44
13934;BME280;7039;52.168;9.866;2023-06-24T04:02:43;101492.44;;;15.00;88.93
13934;BME280;7039;52.168;9.866;2023-06-24T08:00:05;101537.16;;;21.62;59.25
13934;BME280;7039;52.168;9.866;2023-06-24T08:05:23;101538.84;;;21.74;55.65
13934;BME280;7039;52.168;9.866;2023-06-24T08:08:10;101527.56;;;21.93;58.45
13934;BME280;7039;52.168;9.866;2023-06-24T08:10:37;101531.38;;;22.11;58.23
13934;BME280;7039;52.168;9.866;2023-06-24T08:15:57;101533.63;;;22.27;58.30
13934;BME280;7039;52.168;9.866;2023-06-24T08:18:24;101531.59;;;22.31;56.51
13934;BME280;7039;52.168;9.866;2023-06-24T08:23:55;101519.91;;;22.43;55.52
13934;BME280;7039;52.168;9.866;2023-06-24T08:29:24;101531.59;;;22.52;57.01
13934;BME280;7039;52.168;9.866;2023-06-24T08:31:52;101525.19;;;22.76;56.60
13934;BME280;7039;52.168;9.866;2023-06-24T08:34:19;101527.44;;;22.59;58.32
13934;BME280;7039;52.168;9.866;2023-06-24T08:36:45;101529.16;;;22.60;59.22
13934;BME280;7039;52.168;9.866;2023-06-24T08:39:12;101529.22;;;22.70;60.03
13934;BME280;7039;52.168;9.866;2023-06-24T08:41:39;101519.88;;;22.76;59.98
13934;BME280;7039;52.168;9.866;2023-06-24T08:44:05;101521.69;;;22.75;58.45
13934;BME280;7039;52.168;9.866;2023-06-24T08:46:34;101512.09;;;22.63;59.32
13934;BME280;7039;52.168;9.866;2023-06-24T08:49:09;101515.50;;;22.96;60.74
13934;BME280;7039;52.168;9.866;2023-06-24T08:51:40;101515.41;;;22.76;62.07
13934;BME280;7039;52.168;9.866;2023-06-24T08:54:10;101524.16;;;22.88;62.78
13934;BME280;7039;52.168;9.866;2023-06-24T08:59:12;101525.81;;;22.89;62.33
13934;BME280;7039;52.168;9.866;2023-06-24T09:01:44;101519.66;;;22.88;63.50
13934;BME280;7039;52.168;9.866;2023-06-24T09:04:13;101520.44;;;23.00;62.98
13934;BME280;7039;52.168;9.866;2023-06-24T09:06:40;101510.91;;;23.19;62.83
13934;BME280;7039;52.168;9.866;2023-06-24T09:09:17;101511.25;;;23.14;61.61
13934;BME280;7039;52.168;9.866;2023-06-24T09:11:51;101510.75;;;23.20;62.41
13934;BME280;7039;52.168;9.866;2023-06-24T09:17:09;101514.34;;;23.40;62.60
13934;BME280;7039;52.168;9.866;2023-06-24T09:19:37;101518.00;;;23.49;62.64
13934;BME280;7039;52.168;9.866;2023-06-24T09:22:05;101508.66;;;23.64;61.63
13934;BME280;7039;52.168;9.866;2023-06-24T09:24:33;101500.50;;;23.66;61.88
13934;BME280;7039;52.168;9.866;2023-06-24T09:27:00;101501.34;;;23.56;60.44
13934;BME280;7039;52.168;9.866;2023-06-24T09:29:35;101506.22;;;23.42;61.23
13934;BME280;7039;52.168;9.866;2023-06-24T09:32:19;101498.31;;;23.71;62.04
13934;BME280;7039;52.168;9.866;2023-06-24T09:34:47;101490.47;;;23.89;62.52
13934;BME280;7039;52.168;9.866;2023-06-24T09:37:21;101492.47;;;24.16;60.46
13934;BME280;7039;52.168;9.866;2023-06-24T09:39:48;101492.47;;;24.16;60.27
13934;BME280;7039;52.168;9.866;2023-06-24T09:42:15;101492.84;;;23.82;61.83
13934;BME280;7039;52.168;9.866;2023-06-24T09:44:41;101484.31;;;23.88;59.51
13934;BME280;7039;52.168;9.866;2023-06-24T09:47:08;101482.78;;;23.95;60.14
13934;BME280;7039;52.168;9.866;2023-06-24T09:49:34;101488.69;;;23.99;59.30
13934;BME280;7039;52.168;9.866;2023-06-24T09:52:04;101487.25;;;24.05;58.30
13934;BME280;7039;52.168;9.866;2023-06-24T09:54:32;101481.25;;;24.12;56.75
13934;BME280;7039;52.168;9.866;2023-06-24T09:57:01;101480.69;;;23.89;58.26
13934;BME280;7039;52.168;9.866;2023-06-24T09:59:30;101477.88;;;24.20;59.48
13934;BME280;7039;52.168;9.866;2023-06-24T10:01:58;101483.59;;;24.45;60.32
13934;BME280;7039;52.168;9.866;2023-06-24T10:04:26;101478.56;;;24.61;60.85
13934;BME280;7039;52.168;9.866;2023-06-24T10:06:54;101480.19;;;24.82;57.14
13934;BME280;7039;52.168;9.866;2023-06-24T10:09:22;101472.78;;;24.75;57.44
13934;BME280;7039;52.168;9.866;2023-06-24T10:11:49;101472.56;;;24.87;59.82
13934;BME280;7039;52.168;9.866;2023-06-24T10:14:16;101463.91;;;24.75;59.37
13934;BME280;7039;52.168;9.866;2023-06-24T10:16:44;101468.94;;;24.88;56.64
13934;BME280;7039;52.168;9.866;2023-06-24T10:19:19;101466.16;;;25.17;60.14
13934;BME280;7039;52.168;9.866;2023-06-24T10:21:50;101463.56;;;24.97;58.90
13934;BME280;7039;52.168;9.866;2023-06-24T10:24:31;101458.72;;;24.73;60.81
13934;BME280;7039;52.168;9.866;2023-06-24T10:27:02;101468.13;;;25.15;60.70
13934;BME280;7039;52.168;9.866;2023-06-24T10:29:33;101464.59;;;25.24;59.00
13934;BME280;7039;52.168;9.866;2023-06-24T10:32:03;101459.50;;;25.31;58.06
13934;BME280;7039;52.168;9.866;2023-06-24T10:34:32;101468.69;;;25.46;56.49
13934;BME280;7039;52.168;9.866;2023-06-24T10:37:00;101460.22;;;25.51;58.12
13934;BME280;7039;52.168;9.866;2023-06-24T10:39:47;101462.13;;;25.58;58.77
13934;BME280;7039;52.168;9.866;2023-06-24T10:42:28;101450.47;;;25.77;57.96
13934;BME280;7039;52.168;9.866;2023-06-24T10:44:56;101446.69;;;25.52;56.80
13934;BME280;7039;52.168;9.866;2023-06-24T10:47:23;101448.69;;;25.68;57.14
13934;BME280;7039;52.168;9.866;2023-06-24T10:49:50;101449.56;;;26.04;56.86
13934;BME280;7039;52.168;9.866;2023-06-24T10:52:18;101451.25;;;26.23;57.03
13934;BME280;7039;52.168;9.866;2023-06-24T10:54:47;101440.69;;;26.22;57.41
13934;BME280;7039;52.168;9.866;2023-06-24T10:57:14;101444.31;;;26.13;55.95
13934;BME280;7039;52.168;9.866;2023-06-24T10:59:42;101437.63;;;26.35;59.33
13934;BME280;7039;52.168;9.866;2023-06-24T11:02:09;101441.56;;;26.75;56.25
13934;BME280;7039;52.168;9.866;2023-06-24T11:04:43;101444.50;;;26.37;54.34
13934;BME280;7039;52.168;9.866;2023-06-24T11:07:10;101435.56;;;26.29;55.16
13934;BME280;7039;52.168;9.866;2023-06-24T11:09:37;101435.59;;;26.55;57.23
13934;BME280;7039;52.168;9.866;2023-06-24T11:12:06;101432.84;;;26.73;53.71
13934;BME280;7039;52.168;9.866;2023-06-24T11:14:35;101426.63;;;26.64;55.33
13934;BME280;7039;52.168;9.866;2023-06-24T11:17:02;101423.66;;;27.10;55.86
13934;BME280;7039;52.168;9.866;2023-06-24T11:19:29;101412.78;;;26.69;56.98
13934;BME280;7039;52.168;9.866;2023-06-24T11:21:59;101421.59;;;26.95;54.09
13934;BME280;7039;52.168;9.866;2023-06-24T11:24:25;101424.47;;;27.02;53.21
13934;BME280;7039;52.168;9.866;2023-06-24T11:26:51;101420.56;;;27.31;54.27
13934;BME280;7039;52.168;9.866;2023-06-24T11:29:19;101420.66;;;27.80;52.51
13934;BME280;7039;52.168;9.866;2023-06-24T11:31:46;101412.16;;;28.01;55.49
13934;BME280;7039;52.168;9.866;2023-06-24T11:34:12;101417.97;;;27.80;51.95
13934;BME280;7039;52.168;9.866;2023-06-24T11:36:39;101406.72;;;27.68;53.47
13934;BME280;7039;52.168;9.866;2023-06-24T11:39:05;101404.09;;;28.01;51.55
13934;BME280;7039;52.168;9.866;2023-06-24T11:41:32;101400.19;;;28.52;53.70
13934;BME280;7039;52.168;9.866;2023-06-24T11:43:58;101394.50;;;28.23;51.59
13934;BME280;7039;52.168;9.866;2023-06-24T11:46:27;101394.22;;;28.09;52.47
13934;BME280;7039;52.168;9.866;2023-06-24T11:49:03;101393.59;;;28.63;52.63
13934;BME280;7039;52.168;9.866;2023-06-24T11:51:29;101394.47;;;28.64;53.99
13934;BME280;7039;52.168;9.866;2023-06-24T11:53:58;101379.94;;;28.09;50.88
13934;BME280;7039;52.168;9.866;2023-06-24T11:56:34;101388.22;;;28.63;54.07
13934;BME280;7039;52.168;9.866;2023-06-24T11:59:00;101385.88;;;29.08;51.56
13934;BME280;7039;52.168;9.866;2023-06-24T12:01:31;101391.84;;;29.49;51.70
13934;BME280;7039;52.168;9.866;2023-06-24T12:03:59;101389.56;;;30.07;51.86
13934;BME280;7039;52.168;9.866;2023-06-24T12:06:26;101382.84;;;30.56;51.44
13934;BME280;7039;52.168;9.866;2023-06-24T12:08:52;101381.75;;;29.28;47.28
13934;BME280;7039;52.168;9.866;2023-06-24T12:11:19;101375.84;;;29.56;49.17
13934;BME280;7039;52.168;9.866;2023-06-24T12:13:45;101383.16;;;30.08;50.73
13934;BME280;7039;52.168;9.866;2023-06-24T12:16:12;101372.97;;;29.03;50.23
13934;BME280;7039;52.168;9.866;2023-06-24T12:18:40;101371.81;;;29.52;48.69
13934;BME280;7039;52.168;9.866;2023-06-24T12:21:06;101376.78;;;29.86;47.04
13934;BME280;7039;52.168;9.866;2023-06-24T12:23:33;101373.50;;;29.53;46.38
13934;BME280;7039;52.168;9.866;2023-06-24T12:25:59;101369.56;;;29.64;47.58
13934;BME280;7039;52.168;9.866;2023-06-24T12:28:26;101360.47;;;29.65;45.89
13934;BME280;7039;52.168;9.866;2023-06-24T12:30:52;101377.84;;;30.00;46.56
13934;BME280;7039;52.168;9.866;2023-06-24T12:33:19;101374.34;;;30.14;47.85
13934;BME280;7039;52.168;9.866;2023-06-24T12:35:49;101371.94;;;29.59;47.95
13934;BME280;7039;52.168;9.866;2023-06-24T12:38:15;101377.03;;;30.14;46.93
13934;BME280;7039;52.168;9.866;2023-06-24T12:40:42;101370.13;;;29.97;46.02
13934;BME280;7039;52.168;9.866;2023-06-24T12:43:10;101367.59;;;29.58;47.40
13934;BME280;7039;52.168;9.866;2023-06-24T12:45:36;101366.19;;;29.39;47.22
13934;BME280;7039;52.168;9.866;2023-06-24T12:48:03;101356.41;;;29.23;50.94
13934;BME280;7039;52.168;9.866;2023-06-24T12:50:30;101357.94;;;29.25;49.48
13934;BME280;7039;52.168;9.866;2023-06-24T12:52:58;101362.63;;;29.23;48.55
13934;BME280;7039;52.168;9.866;2023-06-24T12:55:24;101352.56;;;29.25;47.08
13934;BME280;7039;52.168;9.866;2023-06-24T12:57:51;101354.78;;;29.13;50.75
13934;BME280;7039;52.168;9.866;2023-06-24T13:00:19;101359.13;;;29.46;49.76
13934;BME280;7039;52.168;9.866;2023-06-24T13:02:46;101365.66;;;30.27;50.40
13934;BME280;7039;52.168;9.866;2023-06-24T13:05:12;101356.78;;;31.29;48.65
13934;BME280;7039;52.168;9.866;2023-06-24T13:07:39;101353.50;;;31.49;45.60
13934;BME280;7039;52.168;9.866;2023-06-24T13:10:08;101356.88;;;31.57;45.30
13934;BME280;7039;52.168;9.866;2023-06-24T13:12:34;101360.16;;;32.31;42.16
13934;BME280;7039;52.168;9.866;2023-06-24T13:15:01;101360.78;;;31.76;44.68
13934;BME280;7039;52.168;9.866;2023-06-24T13:17:29;101358.31;;;32.03;44.84
13934;BME280;7039;52.168;9.866;2023-06-24T13:19:56;101349.97;;;32.67;41.82
13934;BME280;7039;52.168;9.866;2023-06-24T13:22:22;101348.84;;;31.92;44.28
13934;BME280;7039;52.168;9.866;2023-06-24T13:24:49;101357.19;;;30.75;44.19
13934;BME280;7039;52.168;9.866;2023-06-24T13:27:17;101354.16;;;30.33;48.31
13934;BME280;7039;52.168;9.866;2023-06-24T13:29:43;101351.06;;;30.22;49.19
13934;BME280;7039;52.168;9.866;2023-06-24T13:32:10;101346.59;;;30.88;47.20
13934;BME280;7039;52.168;9.866;2023-06-24T13:34:36;101354.94;;;33.12;41.92
13934;BME280;7039;52.168;9.866;2023-06-24T13:37:03;101347.72;;;33.93;38.82
13934;BME280;7039;52.168;9.866;2023-06-24T13:39:30;101359.59;;;34.05;41.02
13934;BME280;7039;52.168;9.866;2023-06-24T13:41:57;101360.88;;;35.19;39.75
13934;BME280;7039;52.168;9.866;2023-06-24T13:44:26;101358.84;;;35.40;37.11
13934;BME280;7039;52.168;9.866;2023-06-24T13:46:52;101364.28;;;36.15;36.45
13934;BME280;7039;52.168;9.866;2023-06-24T13:49:19;101356.94;;;36.59;36.82
13934;BME280;7039;52.168;9.866;2023-06-24T13:51:46;101352.53;;;35.21;37.35
13934;BME280;7039;52.168;9.866;2023-06-24T13:54:12;101355.22;;;34.82;39.72
13934;BME280;7039;52.168;9.866;2023-06-24T13:56:39;101358.94;;;34.29;38.68
13934;BME280;7039;52.168;9.866;2023-06-24T13:59:05;101353.03;;;35.04;39.23
13934;BME280;7039;52.168;9.866;2023-06-24T14:01:33;101344.56;;;33.49;39.49
13934;BME280;7039;52.168;9.866;2023-06-24T14:04:01;101351.38;;;34.97;40.13
13934;BME280;7039;52.168;9.866;2023-06-24T14:06:27;101347.75;;;34.78;36.75
13934;BME280;7039;52.168;9.866;2023-06-24T14:08:54;101352.19;;;35.35;38.07
13934;BME280;7039;52.168;9.866;2023-06-24T14:11:21;101339.00;;;34.76;38.61
13934;BME280;7039;52.168;9.866;2023-06-24T14:13:47;101337.31;;;33.83;39.52
13934;BME280;7039;52.168;9.866;2023-06-24T14:16:14;101332.09;;;34.01;38.76
13934;BME280;7039;52.168;9.866;2023-06-24T14:18:42;101339.19;;;34.74;39.79
13934;BME280;7039;52.168;9.866;2023-06-24T14:21:09;101339.72;;;36.03;35.46
13934;BME280;7039;52.168;9.866;2023-06-24T14:23:36;101336.00;;;36.41;36.34
13934;BME280;7039;52.168;9.866;2023-06-24T14:26:03;101332.03;;;35.82;37.07
13934;BME280;7039;52.168;9.866;2023-06-24T14:28:29;101324.78;;;36.86;33.76
13934;BME280;7039;52.168;9.866;2023-06-24T14:30:56;101330.75;;;38.19;34.79
13934;BME280;7039;52.168;9.866;2023-06-24T14:33:22;101322.41;;;36.60;33.44
13934;BME280;7039;52.168;9.866;2023-06-24T14:35:50;101318.88;;;36.59;33.68
13934;BME280;7039;52.168;9.866;2023-06-24T14:38:17;101319.94;;;36.21;33.20
13934;BME280;7039;52.168;9.866;2023-06-24T14:40:43;101321.50;;;36.96;33.97
13934;BME280;7039;52.168;9.866;2023-06-24T14:43:10;101311.19;;;37.40;33.77
13934;BME280;7039;52.168;9.866;2023-06-24T14:45:37;101311.22;;;38.63;34.08
13934;BME280;7039;52.168;9.866;2023-06-24T14:48:03;101306.03;;;36.48;33.72
13934;BME280;7039;52.168;9.866;2023-06-24T14:50:30;101303.88;;;36.98;33.12
13934;BME280;7039;52.168;9.866;2023-06-24T14:52:57;101308.41;;;37.05;32.72
13934;BME280;7039;52.168;9.866;2023-06-24T14:55:24;101304.66;;;37.17;35.19
13934;BME280;7039;52.168;9.866;2023-06-24T14:57:50;101307.31;;;38.18;31.55
13934;BME280;7039;52.168;9.866;2023-06-24T15:00:17;101302.47;;;38.61;31.40
13934;BME280;7039;52.168;9.866;2023-06-24T15:02:44;101292.50;;;38.14;31.42
13934;BME280;7039;52.168;9.866;2023-06-24T15:05:10;101293.09;;;38.16;32.83
13934;BME280;7039;52.168;9.866;2023-06-24T15:07:37;101279.31;;;37.05;33.14
13934;BME280;7039;52.168;9.866;2023-06-24T15:10:06;101294.06;;;37.87;33.52
13934;BME280;7039;52.168;9.866;2023-06-24T15:12:33;101291.28;;;38.34;31.13
13934;BME280;7039;52.168;9.866;2023-06-24T15:14:59;101278.56;;;37.87;31.94
13934;BME280;7039;52.168;9.866;2023-06-24T15:17:26;101268.34;;;36.51;34.28
13934;BME280;7039;52.168;9.866;2023-06-24T15:19:54;101276.84;;;36.73;33.50
13934;BME280;7039;52.168;9.866;2023-06-24T15:22:20;101281.41;;;36.91;35.53
13934;BME280;7039;52.168;9.866;2023-06-24T15:24:47;101278.09;;;37.43;33.58
13934;BME280;7039;52.168;9.866;2023-06-24T15:27:14;101280.94;;;37.06;33.86
13934;BME280;7039;52.168;9.866;2023-06-24T15:29:41;101275.59;;;37.53;34.38
13934;BME280;7039;52.168;9.866;2023-06-24T15:32:07;101271.09;;;36.82;35.81
13934;BME280;7039;52.168;9.866;2023-06-24T15:34:34;101276.56;;;38.35;33.55
13934;BME280;7039;52.168;9.866;2023-06-24T15:37:00;101278.09;;;38.71;31.20
13934;BME280;7039;52.168;9.866;2023-06-24T15:39:27;101278.91;;;39.51;32.72
13934;BME280;7039;52.168;9.866;2023-06-24T15:41:53;101275.84;;;40.25;31.61
13934;BME280;7039;52.168;9.866;2023-06-24T15:44:21;101272.22;;;40.42;29.20
13934;BME280;7039;52.168;9.866;2023-06-24T15:46:47;101264.78;;;39.54;30.54
13934;BME280;7039;52.168;9.866;2023-06-24T15:49:14;101261.84;;;38.07;31.42
13934;BME280;7039;52.168;9.866;2023-06-24T15:51:41;101259.03;;;38.31;31.77
13934;BME280;7039;52.168;9.866;2023-06-24T15:54:07;101267.44;;;38.70;32.41
13934;BME280;7039;52.168;9.866;2023-06-24T15:56:34;101267.06;;;39.62;32.06
13934;BME280;7039;52.168;9.866;2023-06-24T15:59:00;101263.75;;;38.07;31.53
13934;BME280;7039;52.168;9.866;2023-06-24T16:01:28;101255.41;;;35.54;34.23
13934;BME280;7039;52.168;9.866;2023-06-24T16:03:55;101251.72;;;36.29;35.46
13934;BME280;7039;52.168;9.866;2023-06-24T16:06:21;101252.09;;;37.59;31.93
13934;BME280;7039;52.168;9.866;2023-06-24T16:08:48;101254.41;;;37.79;33.20
13934;BME280;7039;52.168;9.866;2023-06-24T16:11:15;101250.81;;;37.90;31.58
13934;BME280;7039;52.168;9.866;2023-06-24T16:13:41;101255.78;;;38.17;32.49
13934;BME280;7039;52.168;9.866;2023-06-24T16:16:07;101249.59;;;38.21;33.18
13934;BME280;7039;52.168;9.866;2023-06-24T16:18:35;101251.47;;;37.45;34.02
13934;BME280;7039;52.168;9.866;2023-06-24T16:21:02;101243.38;;;36.61;33.21
13934;BME280;7039;52.168;9.866;2023-06-24T16:23:28;101248.63;;;37.75;33.89
13934;BME280;7039;52.168;9.866;2023-06-24T16:25:55;101245.06;;;37.75;31.57
13934;BME280;7039;52.168;9.866;2023-06-24T16:28:21;101245.19;;;37.33;32.92
13934;BME280;7039;52.168;9.866;2023-06-24T16:30:48;101245.06;;;37.63;33.00
13934;BME280;7039;52.168;9.866;2023-06-24T16:33:14;101243.19;;;37.75;32.90
13934;BME280;7039;52.168;9.866;2023-06-24T16:35:42;101243.78;;;38.30;34.24
13934;BME280;7039;52.168;9.866;2023-06-24T16:38:09;101238.31;;;39.04;31.22
13934;BME280;7039;52.168;9.866;2023-06-24T16:40:35;101248.00;;;39.45;30.81
13934;BME280;7039;52.168;9.866;2023-06-24T16:43:02;101235.03;;;39.02;31.52
13934;BME280;7039;52.168;9.866;2023-06-24T16:45:28;101237.69;;;38.85;30.69
13934;BME280;7039;52.168;9.866;2023-06-24T16:47:54;101231.94;;;39.32;30.50
13934;BME280;7039;52.168;9.866;2023-06-24T16:50:21;101227.19;;;38.60;31.52
13934;BME280;7039;52.168;9.866;2023-06-24T16:52:49;101224.41;;;38.43;32.55
13934;BME280;7039;52.168;9.866;2023-06-24T16:55:15;101227.03;;;37.97;34.31
13934;BME280;7039;52.168;9.866;2023-06-24T16:57:42;101226.13;;;37.80;35.26
13934;BME280;7039;52.168;9.866;2023-06-24T17:00:09;101234.19;;;38.56;31.61
13934;BME280;7039;52.168;9.866;2023-06-24T17:02:36;101226.78;;;37.99;32.65
13934;BME280;7039;52.168;9.866;2023-06-24T17:05:03;101226.63;;;38.46;30.80
13934;BME280;7039;52.168;9.866;2023-06-24T17:07:30;101216.31;;;37.55;31.73
13934;BME280;7039;52.168;9.866;2023-06-24T17:09:59;101219.00;;;38.60;31.57
13934;BME280;7039;52.168;9.866;2023-06-24T17:12:25;101220.81;;;37.73;33.57
13934;BME280;7039;52.168;9.866;2023-06-24T17:14:52;101212.63;;;37.14;34.07
13934;BME280;7039;52.168;9.866;2023-06-24T17:17:18;101213.44;;;36.31;35.08
13934;BME280;7039;52.168;9.866;2023-06-24T17:19:45;101214.53;;;36.42;35.91
13934;BME280;7039;52.168;9.866;2023-06-24T17:22:11;101211.66;;;36.25;34.50
13934;BME280;7039;52.168;9.866;2023-06-24T17:24:37;101210.53;;;35.77;34.14
13934;BME280;7039;52.168;9.866;2023-06-24T17:27:05;101215.72;;;35.97;35.35
13934;BME280;7039;52.168;9.866;2023-06-24T17:29:32;101213.75;;;36.04;35.83
13934;BME280;7039;52.168;9.866;2023-06-24T17:31:59;101224.44;;;37.08;34.26
13934;BME280;7039;52.168;9.866;2023-06-24T17:34:26;101220.31;;;37.17;34.56
13934;BME280;7039;52.168;9.866;2023-06-24T17:36:53;101225.16;;;38.27;33.55
13934;BME280;7039;52.168;9.866;2023-06-24T17:39:20;101220.75;;;38.66;33.23
13934;BME280;7039;52.168;9.866;2023-06-24T17:41:46;101209.59;;;38.10;33.58
13934;BME280;7039;52.168;9.866;2023-06-24T17:44:14;101213.38;;;37.45;34.28
13934;BME280;7039;52.168;9.866;2023-06-24T17:46:41;101214.63;;;38.30;33.67
13934;BME280;7039;52.168;9.866;2023-06-24T17:49:07;101210.31;;;36.76;35.41
13934;BME280;7039;52.168;9.866;2023-06-24T17:51:34;101203.41;;;37.15;35.23
13934;BME280;7039;52.168;9.866;2023-06-24T17:54:01;101201.53;;;37.28;34.38
13934;BME280;7039;52.168;9.866;2023-06-24T17:56:27;101204.47;;;37.38;34.51
13934;BME280;7039;52.168;9.866;2023-06-24T17:58:54;101202.56;;;37.74;34.23
13934;BME280;7039;52.168;9.866;2023-06-24T18:01:22;101199.09;;;38.31;33.78
13934;BME280;7039;52.168;9.866;2023-06-24T18:03:54;101209.38;;;38.00;34.42
13934;BME280;7039;52.168;9.866;2023-06-24T18:06:20;101199.91;;;38.02;33.83
13934;BME280;7039;52.168;9.866;2023-06-24T18:08:47;101211.00;;;38.13;33.54
13934;BME280;7039;52.168;9.866;2023-06-24T18:11:13;101191.69;;;37.50;35.39
13934;BME280;7039;52.168;9.866;2023-06-24T18:13:40;101190.66;;;36.62;36.84
13934;BME280;7039;52.168;9.866;2023-06-24T18:16:07;101186.53;;;36.11;36.85
13934;BME280;7039;52.168;9.866;2023-06-24T18:18:34;101190.63;;;35.21;37.77
13934;BME280;7039;52.168;9.866;2023-06-24T18:21:01;101183.56;;;34.57;38.95
13934;BME280;7039;52.168;9.866;2023-06-24T18:23:28;101189.03;;;33.98;39.05
13934;BME280;7039;52.168;9.866;2023-06-24T18:25:54;101183.56;;;33.13;42.18
13934;BME280;7039;52.168;9.866;2023-06-24T18:28:21;101187.19;;;32.45;44.39
13934;BME280;7039;52.168;9.866;2023-06-24T18:30:47;101175.41;;;31.98;45.11
13934;BME280;7039;52.168;9.866;2023-06-24T18:33:14;101178.72;;;32.00;44.08
13934;BME280;7039;52.168;9.866;2023-06-24T18:35:42;101181.25;;;31.74;46.91
13934;BME280;7039;52.168;9.866;2023-06-24T18:38:08;101170.16;;;31.55;45.62
13934;BME280;7039;52.168;9.866;2023-06-24T18:40:35;101165.28;;;30.88;47.86
13934;BME280;7039;52.168;9.866;2023-06-24T18:43:01;101171.66;;;30.44;50.56
13934;BME280;7039;52.168;9.866;2023-06-24T18:45:30;101178.69;;;29.79;51.78
13934;BME280;7039;52.168;9.866;2023-06-24T18:47:56;101167.22;;;28.94;54.86
13934;BME280;7039;52.168;9.866;2023-06-24T18:50:23;101168.03;;;28.48;55.13
13934;BME280;7039;52.168;9.866;2023-06-24T18:52:50;101168.88;;;28.49;55.79
13934;BME280;7039;52.168;9.866;2023-06-24T18:55:17;101164.00;;;28.44;55.95
13934;BME280;7039;52.168;9.866;2023-06-24T18:57:43;101167.78;;;28.27;56.67
13934;BME280;7039;52.168;9.866;2023-06-24T19:00:11;101159.00;;;28.10;57.22
13934;BME280;7039;52.168;9.866;2023-06-24T19:02:38;101169.94;;;28.00;57.64
13934;BME280;7039;52.168;9.866;2023-06-24T19:05:04;101170.00;;;27.67;58.81
13934;BME280;7039;52.168;9.866;2023-06-24T19:07:31;101173.72;;;27.66;59.23
13934;BME280;7039;52.168;9.866;2023-06-24T19:09:59;101166.38;;;27.52;59.35
13934;BME280;7039;52.168;9.866;2023-06-24T19:12:25;101164.06;;;27.16;60.39
13934;BME280;7039;52.168;9.866;2023-06-24T19:14:52;101167.06;;;26.80;62.41
13934;BME280;7039;52.168;9.866;2023-06-24T19:17:18;101163.81;;;26.52;63.65
13934;BME280;7039;52.168;9.866;2023-06-24T19:19:44;101167.38;;;26.18;65.01
13934;BME280;7039;52.168;9.866;2023-06-24T19:22:11;101173.16;;;25.97;65.71